Time;durP1;ratioP1;P1;durP2;ratioP2;P2;SDS_P1;SDS_P2;PMS_P1;PMS_P2;Temp;Humidity;BMP_temperature;BMP_pressure;BME280_temperature;BME280_humidity;BME280_pressure;Samples;Min_cycle;Max_cycle;Signal;HPM_P1;HPM_P2
2024/02/13 00:00:34;;;;;;;5.70;4.50;;;;;;;7.03;100.00;100481.52;104792;1258;72008;-60
2024/02/13 00:03:02;;;;;;;10.90;7.70;;;;;;;7.00;100.00;100483.71;104828;1260;67551;-61
2024/02/13 00:05:29;;;;;;;5.40;5.00;;;;;;;6.98;100.00;100482.34;104973;1258;71205;-58
2024/02/13 00:08:00;;;;;;;5.80;4.60;;;;;;;6.95;100.00;100480.27;105066;1264;60542;-60
2024/02/13 00:10:28;;;;;;;16.60;10.90;;;;;;;6.93;100.00;100477.27;105436;1257;60467;-60
2024/02/13 00:12:55;;;;;;;13.80;10.90;;;;;;;6.92;100.00;100475.52;104868;1262;73055;-59
2024/02/13 00:15:23;;;;;;;14.50;10.80;;;;;;;6.89;100.00;100476.11;104781;1262;67325;-58
2024/02/13 00:17:51;;;;;;;8.90;6.80;;;;;;;6.88;100.00;100479.17;104984;1262;73153;-58
2024/02/13 00:20:18;;;;;;;7.30;6.20;;;;;;;6.88;100.00;100480.98;104837;1260;60658;-60
2024/02/13 00:22:49;;;;;;;10.10;6.20;;;;;;;6.88;100.00;100489.00;104974;1258;60658;-59
2024/02/13 00:25:18;;;;;;;9.90;6.80;;;;;;;6.88;100.00;100494.16;105255;1257;73938;-62
2024/02/13 00:27:46;;;;;;;5.30;4.10;;;;;;;6.88;100.00;100489.34;104768;1261;67037;-59
2024/02/13 00:30:14;;;;;;;4.80;4.20;;;;;;;6.88;100.00;100486.49;104828;1263;71544;-58
2024/02/13 00:32:42;;;;;;;4.70;3.70;;;;;;;6.88;100.00;100489.71;104934;1261;60530;-60
2024/02/13 00:35:10;;;;;;;9.70;5.00;;;;;;;6.88;100.00;100493.11;105512;1261;60428;-58
2024/02/13 00:37:37;;;;;;;5.20;4.50;;;;;;;6.87;100.00;100491.86;105583;1261;73278;-61
2024/02/13 00:40:09;;;;;;;13.90;8.80;;;;;;;6.86;100.00;100497.95;104837;1261;67030;-59
2024/02/13 00:42:37;;;;;;;6.30;5.60;;;;;;;6.83;100.00;100508.17;104877;1257;71494;-60
2024/02/13 00:45:07;;;;;;;5.90;4.50;;;;;;;6.80;100.00;100506.44;104856;1261;60768;-60
2024/02/13 00:47:34;;;;;;;6.90;4.00;;;;;;;6.79;100.00;100506.65;105085;1258;60632;-60
2024/02/13 00:50:02;;;;;;;6.50;4.50;;;;;;;6.79;100.00;100504.54;104890;1263;72656;-57
2024/02/13 00:52:30;;;;;;;6.60;3.50;;;;;;;6.78;100.00;100504.18;104801;1260;65857;-61
2024/02/13 00:54:57;;;;;;;7.90;3.80;;;;;;;6.78;100.00;100499.55;105715;1260;70955;-59
2024/02/13 00:57:25;;;;;;;3.40;1.50;;;;;;;6.78;100.00;100488.31;104958;1258;60562;-60
2024/02/13 00:59:52;;;;;;;3.20;1.70;;;;;;;6.82;100.00;100492.33;104921;1263;60463;-60
2024/02/13 01:02:20;;;;;;;5.90;1.80;;;;;;;6.96;100.00;100499.31;105076;1260;73807;-61
2024/02/13 01:04:48;;;;;;;4.50;1.30;;;;;;;6.86;100.00;100487.79;104789;1263;65819;-61
2024/02/13 01:07:17;;;;;;;3.60;1.20;;;;;;;6.85;100.00;100495.29;107242;1262;71827;-59
2024/02/13 01:09:45;;;;;;;3.60;1.10;;;;;;;6.88;100.00;100511.12;105230;1262;61696;-59
2024/02/13 01:12:12;;;;;;;5.10;1.40;;;;;;;6.90;100.00;100510.52;104614;1260;60652;-59
2024/02/13 01:14:39;;;;;;;3.20;1.10;;;;;;;6.91;100.00;100520.48;104810;1257;74424;-60
2024/02/13 01:17:07;;;;;;;3.70;1.10;;;;;;;6.93;100.00;100527.05;104752;1260;67484;-60
2024/02/13 01:19:34;;;;;;;4.20;1.30;;;;;;;6.90;100.00;100528.55;104601;1256;73366;-60
2024/02/13 01:22:02;;;;;;;4.20;1.00;;;;;;;6.90;100.00;100538.35;108161;1256;61709;-58
2024/02/13 01:24:32;;;;;;;5.70;0.90;;;;;;;6.90;100.00;100541.73;104872;1260;60530;-59
2024/02/13 01:26:59;;;;;;;2.70;0.90;;;;;;;6.92;100.00;100547.06;104770;1258;75054;-60
2024/02/13 01:29:26;;;;;;;2.00;0.90;;;;;;;6.92;100.00;100549.38;104836;1262;65807;-59
2024/02/13 01:31:54;;;;;;;5.10;1.00;;;;;;;6.92;100.00;100550.08;108765;1257;72475;-62
2024/02/13 01:34:21;;;;;;;6.00;1.00;;;;;;;6.94;100.00;100548.45;105202;1263;61654;-59
2024/02/13 01:36:49;;;;;;;4.60;1.20;;;;;;;6.93;100.00;100548.29;104688;1272;60556;-61
2024/02/13 01:39:16;;;;;;;3.30;0.90;;;;;;;6.93;100.00;100546.69;104807;1271;72725;-62
2024/02/13 01:41:44;;;;;;;1.90;0.80;;;;;;;6.92;100.00;100546.16;104887;1261;65638;-62
2024/02/13 01:44:11;;;;;;;3.10;0.90;;;;;;;6.91;100.00;100546.02;104789;1263;71264;-60
2024/02/13 01:46:39;;;;;;;5.10;1.30;;;;;;;6.87;100.00;100542.70;104745;1259;60437;-60
2024/02/13 01:49:08;;;;;;;3.00;1.10;;;;;;;6.85;100.00;100548.29;108840;1257;58785;-62
2024/02/13 01:51:37;;;;;;;3.50;0.90;;;;;;;6.82;100.00;100549.02;105731;1255;73981;-60
2024/02/13 01:54:05;;;;;;;3.20;1.00;;;;;;;6.80;100.00;100545.87;107035;1261;65766;-59
2024/02/13 01:56:33;;;;;;;1.40;0.70;;;;;;;6.77;100.00;100542.55;105286;1264;71487;-61
2024/02/13 01:59:01;;;;;;;2.80;0.70;;;;;;;6.72;100.00;100542.83;105091;1261;61418;-60
2024/02/13 02:01:29;;;;;;;3.20;1.20;;;;;;;6.66;100.00;100544.20;105015;1263;60890;-58
2024/02/13 02:03:58;;;;;;;3.00;0.80;;;;;;;6.59;100.00;100543.09;104669;1262;73805;-58
2024/02/13 02:06:26;;;;;;;2.20;0.80;;;;;;;6.54;100.00;100543.36;104753;1258;65884;-60
2024/02/13 02:08:53;;;;;;;1.60;0.90;;;;;;;6.46;100.00;100536.57;104978;1262;72793;-61
2024/02/13 02:11:21;;;;;;;2.10;1.00;;;;;;;6.40;100.00;100535.27;104821;1263;60702;-61
2024/02/13 02:13:49;;;;;;;1.90;1.60;;;;;;;6.39;100.00;100530.28;104668;1262;60430;-62
2024/02/13 02:16:17;;;;;;;1.60;1.20;;;;;;;6.38;100.00;100531.73;104517;1257;74826;-60
2024/02/13 02:18:44;;;;;;;2.60;1.00;;;;;;;6.20;100.00;100518.71;104732;1262;67049;-61
2024/02/13 02:21:12;;;;;;;2.70;0.80;;;;;;;6.13;100.00;100507.59;104814;1262;71455;-61
2024/02/13 02:23:39;;;;;;;4.70;2.00;;;;;;;6.09;100.00;100504.83;104668;1262;62091;-60
2024/02/13 02:26:06;;;;;;;1.40;1.10;;;;;;;6.04;100.00;100502.40;104679;1257;60537;-60
2024/02/13 02:28:35;;;;;;;1.70;1.00;;;;;;;6.00;100.00;100507.30;104776;1263;72986;-59
2024/02/13 02:31:03;;;;;;;1.90;1.30;;;;;;;5.95;100.00;100510.96;104629;1257;66949;-62
2024/02/13 02:33:30;;;;;;;1.80;1.40;;;;;;;5.90;100.00;100502.85;104852;1262;73716;-62
2024/02/13 02:35:57;;;;;;;3.00;1.70;;;;;;;5.85;100.00;100496.14;105121;1261;60486;-62
2024/02/13 02:38:25;;;;;;;1.50;1.30;;;;;;;5.79;100.00;100491.59;105004;1257;60550;-62
2024/02/13 02:40:52;;;;;;;2.30;1.50;;;;;;;5.74;100.00;100489.55;104806;1260;72759;-62
2024/02/13 02:43:20;;;;;;;3.00;1.50;;;;;;;5.68;100.00;100484.50;104801;1262;67556;-59
2024/02/13 02:45:47;;;;;;;1.90;1.70;;;;;;;5.63;100.00;100483.84;105324;1256;72338;-62
2024/02/13 02:48:16;;;;;;;3.90;1.20;;;;;;;5.58;100.00;100474.33;105087;1261;61208;-62
2024/02/13 02:50:44;;;;;;;1.70;1.30;;;;;;;5.52;100.00;100474.05;105018;1256;60393;-61
2024/02/13 02:53:12;;;;;;;1.40;1.30;;;;;;;5.47;100.00;100464.89;105101;1261;74554;-55
2024/02/13 02:55:40;;;;;;;1.70;1.10;;;;;;;5.43;100.00;100468.18;106467;1260;66314;-56
2024/02/13 02:58:08;;;;;;;1.90;1.10;;;;;;;5.38;100.00;100468.23;105008;1262;71444;-57
2024/02/13 03:00:36;;;;;;;1.40;1.00;;;;;;;5.34;100.00;100465.48;104483;1258;61676;-57
2024/02/13 03:05:45;;;;;;;2.20;1.60;;;;;;;5.29;100.00;100578.90;102059;1292;601377;-57
2024/02/13 03:08:12;;;;;;;4.10;1.30;;;;;;;5.25;100.00;100654.41;104480;1266;60464;-56
2024/02/13 03:10:41;;;;;;;3.50;1.70;;;;;;;5.24;100.00;100618.83;104087;1267;59992;-57
2024/02/13 03:13:09;;;;;;;3.30;1.30;;;;;;;5.22;100.00;100599.45;104073;1273;74160;-59
2024/02/13 03:15:36;;;;;;;4.50;1.20;;;;;;;5.19;100.00;100578.84;103950;1267;65022;-57
2024/02/13 03:18:05;;;;;;;1.60;1.10;;;;;;;5.18;100.00;100567.67;103981;1270;72646;-57
2024/02/13 03:20:33;;;;;;;3.90;1.50;;;;;;;5.18;100.00;100559.30;104035;1269;243724;-55
2024/02/13 03:23:00;;;;;;;2.10;1.10;;;;;;;5.19;100.00;100551.27;104605;1269;59186;-58
2024/02/13 03:25:28;;;;;;;4.10;1.50;;;;;;;5.19;100.00;100554.85;104053;1271;71070;-57
2024/02/13 03:27:55;;;;;;;4.20;1.50;;;;;;;5.18;100.00;100550.41;104308;1266;66776;-58
2024/02/13 03:30:23;;;;;;;11.20;4.00;;;;;;;5.18;100.00;100548.29;104094;1265;72739;-58
2024/02/13 03:32:50;;;;;;;4.80;1.90;;;;;;;5.17;100.00;100544.55;103923;1266;60018;-58
2024/02/13 03:35:18;;;;;;;4.50;1.30;;;;;;;5.17;100.00;100541.35;104103;1270;61092;-58
2024/02/13 03:37:45;;;;;;;4.80;1.50;;;;;;;5.16;100.00;100534.77;104309;1263;71629;-58
2024/02/13 03:40:15;;;;;;;5.00;1.30;;;;;;;5.15;100.00;100536.39;104371;1264;65812;-58
2024/02/13 03:42:44;;;;;;;3.30;1.00;;;;;;;5.13;100.00;100539.25;104484;1264;72722;-58
2024/02/13 03:45:12;;;;;;;1.80;0.90;;;;;;;5.11;100.00;100539.11;104443;1263;59878;-58
2024/02/13 03:47:39;;;;;;;4.90;1.00;;;;;;;5.10;100.00;100537.54;104485;1267;59648;-58
2024/02/13 03:50:07;;;;;;;1.40;0.80;;;;;;;5.08;100.00;100538.27;104284;1268;71955;-55
2024/02/13 03:52:35;;;;;;;4.30;1.00;;;;;;;5.08;100.00;100535.25;108525;1263;66884;-58
2024/02/13 03:55:04;;;;;;;6.70;1.10;;;;;;;5.08;100.00;100534.73;108357;1263;72726;-58
2024/02/13 03:57:32;;;;;;;4.70;1.00;;;;;;;5.08;100.00;100536.31;108469;1262;62172;-58
2024/02/13 03:59:59;;;;;;;4.60;0.90;;;;;;;5.09;100.00;100532.21;108490;1262;58715;-58
2024/02/13 04:02:26;;;;;;;4.20;1.30;;;;;;;5.09;100.00;100526.52;108447;1263;71854;-58
2024/02/13 04:04:54;;;;;;;5.90;1.60;;;;;;;5.09;100.00;100532.93;108393;1262;65150;-59
2024/02/13 04:07:23;;;;;;;3.10;1.00;;;;;;;5.11;100.00;100530.92;105771;1263;73712;-56
2024/02/13 04:09:50;;;;;;;2.50;0.80;;;;;;;5.13;100.00;100530.55;105501;1263;61896;-56
2024/02/13 04:12:17;;;;;;;3.60;1.00;;;;;;;5.14;100.00;100531.60;104421;1267;59635;-54
2024/02/13 04:14:45;;;;;;;3.30;0.80;;;;;;;5.15;100.00;100537.64;104404;1267;74602;-57
2024/02/13 04:17:12;;;;;;;3.00;0.80;;;;;;;5.16;100.00;100537.45;108538;1261;67229;-59
2024/02/13 04:19:40;;;;;;;1.50;1.00;;;;;;;5.17;100.00;100544.38;108341;1263;72739;-58
2024/02/13 04:22:08;;;;;;;7.00;1.00;;;;;;;5.16;100.00;100543.15;108546;1262;63255;-59
2024/02/13 04:24:35;;;;;;;3.50;0.70;;;;;;;5.15;100.00;100546.17;108476;1266;60576;-59
2024/02/13 04:27:03;;;;;;;4.60;1.80;;;;;;;5.15;100.00;100544.58;108478;1262;73088;-59
2024/02/13 04:29:32;;;;;;;3.20;0.80;;;;;;;5.15;100.00;100538.52;108446;1263;66920;-59
2024/02/13 04:31:59;;;;;;;2.70;0.90;;;;;;;5.17;100.00;100540.64;108633;1263;71458;-59
2024/02/13 04:34:27;;;;;;;3.10;0.90;;;;;;;5.15;100.00;100545.64;108489;1261;58856;-59
2024/02/13 04:36:57;;;;;;;3.10;1.20;;;;;;;5.14;100.00;100547.44;108509;1262;58846;-59
2024/02/13 04:39:25;;;;;;;1.80;0.90;;;;;;;5.11;100.00;100542.83;108636;1263;73074;-59
2024/02/13 04:41:52;;;;;;;6.10;1.50;;;;;;;5.10;100.00;100542.70;108413;1261;67372;-59
2024/02/13 04:44:20;;;;;;;3.20;1.10;;;;;;;5.08;100.00;100542.91;108246;1263;70649;-58
2024/02/13 04:46:47;;;;;;;8.20;1.20;;;;;;;5.06;100.00;100547.01;104147;1263;59656;-56
2024/02/13 04:49:15;;;;;;;5.60;2.20;;;;;;;5.05;100.00;100547.73;104179;1263;60444;-57
2024/02/13 04:51:43;;;;;;;3.50;1.70;;;;;;;5.02;100.00;100549.90;108271;1262;70859;-59
2024/02/13 04:54:10;;;;;;;2.10;0.90;;;;;;;5.00;100.00;100549.77;108462;1262;66924;-59
2024/02/13 04:56:38;;;;;;;6.10;1.50;;;;;;;4.96;100.00;100549.80;108429;1263;71480;-59
2024/02/13 04:59:07;;;;;;;6.60;1.60;;;;;;;4.91;100.00;100549.88;104638;1269;60445;-57
2024/02/13 05:01:43;;;;;;;3.60;1.10;;;;;;;4.88;100.00;100558.27;104935;1263;60120;-57
2024/02/13 05:09:27;;;;;;;1.30;0.80;;;;;;;4.79;100.00;100567.98;103985;1262;73335;-57
2024/02/13 05:11:54;;;;;;;1.40;1.10;;;;;;;4.77;100.00;100559.83;104272;1268;61801;-57
2024/02/13 05:14:21;;;;;;;2.00;1.50;;;;;;;4.74;100.00;100554.89;104435;1266;60606;-57
2024/02/13 05:16:49;;;;;;;4.00;1.40;;;;;;;4.70;100.00;100560.27;104568;1264;71830;-58
2024/02/13 05:19:16;;;;;;;4.10;1.50;;;;;;;4.65;100.00;100560.51;104267;1264;65832;-58
2024/02/13 05:21:44;;;;;;;4.10;2.30;;;;;;;4.61;100.00;100560.73;104717;1267;72483;-58
2024/02/13 05:24:11;;;;;;;5.10;2.60;;;;;;;4.54;100.00;100560.09;104521;1269;59688;-58
2024/02/13 05:26:38;;;;;;;3.30;2.30;;;;;;;4.49;100.00;100564.23;104302;1264;60024;-57
2024/02/13 05:29:05;;;;;;;3.20;1.90;;;;;;;4.45;100.00;100562.14;104351;1263;72394;-58
2024/02/13 05:31:35;;;;;;;3.30;2.00;;;;;;;4.41;100.00;100560.23;104461;1264;65715;-56
2024/02/13 05:34:03;;;;;;;3.10;1.40;;;;;;;4.39;100.00;100556.89;104312;1263;73097;-57
2024/02/13 05:36:30;;;;;;;5.80;2.70;;;;;;;4.38;100.00;100556.00;104290;1266;62272;-57
2024/02/13 05:38:58;;;;;;;7.90;3.20;;;;;;;4.38;100.00;100552.10;104429;1263;60108;-57
2024/02/13 05:41:25;;;;;;;4.60;1.90;;;;;;;4.39;100.00;100560.62;104234;1262;71980;-57
2024/02/13 05:43:53;;;;;;;7.10;3.20;;;;;;;4.38;100.00;100566.66;104221;1263;66874;-57
2024/02/13 05:46:20;;;;;;;5.90;3.20;;;;;;;4.37;100.00;100561.70;104371;1264;71494;-57
2024/02/13 05:48:49;;;;;;;5.50;2.80;;;;;;;4.37;100.00;100560.27;104419;1263;61877;-55
2024/02/13 05:51:18;;;;;;;5.30;2.90;;;;;;;4.38;100.00;100564.88;104966;1263;59714;-57
2024/02/13 05:53:49;;;;;;;8.70;5.50;;;;;;;4.40;100.00;100572.16;104267;1263;71829;-57
2024/02/13 05:56:17;;;;;;;8.90;2.90;;;;;;;4.42;100.00;100574.98;104634;1263;68268;-57
2024/02/13 05:58:57;;;;;;;4.20;2.20;;;;;;;4.44;100.00;100585.79;105385;1268;71770;-57
2024/02/13 06:01:25;;;;;;;2.20;1.40;;;;;;;4.47;100.00;100584.70;105436;1263;61741;-58
2024/02/13 06:03:55;;;;;;;3.50;1.70;;;;;;;4.49;100.00;100584.34;104347;1264;60114;-58
2024/02/13 06:06:23;;;;;;;3.70;2.00;;;;;;;4.51;100.00;100592.11;108471;1263;73483;-59
2024/02/13 06:08:53;;;;;;;3.40;2.10;;;;;;;4.54;100.00;100594.39;108470;1263;67432;-59
2024/02/13 06:11:24;;;;;;;4.90;3.00;;;;;;;4.58;100.00;100597.56;107069;1267;72346;-58
2024/02/13 06:13:53;;;;;;;2.90;2.10;;;;;;;4.62;100.00;100606.75;104516;1262;61677;-58
2024/02/13 06:16:21;;;;;;;2.20;1.50;;;;;;;4.67;100.00;100611.86;104150;1262;60623;-55
2024/02/13 06:18:48;;;;;;;3.30;1.20;;;;;;;4.73;100.00;100613.23;104275;1265;72878;-57
2024/02/13 06:21:19;;;;;;;5.00;3.40;;;;;;;4.77;100.00;100619.73;104849;1268;65628;-56
2024/02/13 06:23:51;;;;;;;7.40;4.80;;;;;;;4.83;100.00;100628.58;104435;1269;73156;-56
2024/02/13 06:26:19;;;;;;;7.70;5.70;;;;;;;4.87;100.00;100629.95;105282;1263;60020;-58
2024/02/13 06:28:46;;;;;;;8.90;5.60;;;;;;;4.91;100.00;100637.20;104373;1262;60456;-58
2024/02/13 06:31:14;;;;;;;9.40;6.20;;;;;;;4.94;100.00;100641.24;104422;1263;72991;-58
2024/02/13 06:33:41;;;;;;;16.10;6.30;;;;;;;4.98;100.00;100646.91;104286;1263;66035;-58
2024/02/13 06:36:10;;;;;;;9.80;5.70;;;;;;;5.00;100.00;100652.22;105468;1253;71773;-56
2024/02/13 06:38:37;;;;;;;7.80;4.50;;;;;;;5.02;100.00;100659.14;105434;1257;61214;-57
2024/02/13 06:41:05;;;;;;;5.90;3.10;;;;;;;5.04;100.00;100663.02;105443;1256;59739;-55
2024/02/13 06:43:33;;;;;;;4.60;1.90;;;;;;;5.07;100.00;100666.73;108563;1253;73007;-58
2024/02/13 06:46:01;;;;;;;7.40;1.70;;;;;;;5.12;100.00;100677.33;104969;1259;67155;-58
2024/02/13 06:48:30;;;;;;;5.00;1.10;;;;;;;5.18;100.00;100683.50;104799;1253;72767;-57
2024/02/13 06:50:57;;;;;;;5.80;2.10;;;;;;;5.25;100.00;100684.30;104972;1258;61197;-58
2024/02/13 06:53:25;;;;;;;6.30;1.30;;;;;;;5.35;100.00;100689.35;104924;1256;59624;-56
2024/02/13 06:55:52;;;;;;;2.80;1.00;;;;;;;5.45;100.00;100701.86;105096;1259;71789;-56
2024/02/13 06:58:20;;;;;;;5.80;0.90;;;;;;;5.55;100.00;100706.20;105718;1253;66100;-56
2024/02/13 07:00:47;;;;;;;3.70;1.50;;;;;;;5.65;100.00;100717.98;104744;1257;71480;-56
2024/02/13 07:03:15;;;;;;;3.60;1.20;;;;;;;5.73;100.00;100732.11;107327;1254;60484;-56
2024/02/13 07:05:43;;;;;;;6.60;1.20;;;;;;;5.83;100.00;100740.38;104865;1256;59648;-57
2024/02/13 07:08:11;;;;;;;4.70;1.00;;;;;;;5.93;100.00;100753.27;104916;1253;73293;-57
2024/02/13 07:10:38;;;;;;;3.80;1.00;;;;;;;6.03;100.00;100765.42;108966;1253;65674;-58
2024/02/13 07:13:05;;;;;;;5.50;1.30;;;;;;;6.14;100.00;100777.58;109079;1253;72598;-58
2024/02/13 07:15:35;;;;;;;3.60;1.10;;;;;;;6.22;100.00;100794.02;108295;1259;62128;-56
2024/02/13 07:18:03;;;;;;;5.00;1.30;;;;;;;6.32;100.00;100805.66;105013;1254;61221;-56
2024/02/13 07:20:30;;;;;;;4.60;1.20;;;;;;;6.41;100.00;100815.68;109046;1253;73054;-58
2024/02/13 07:22:58;;;;;;;8.00;1.50;;;;;;;6.51;100.00;100822.31;107074;1254;67081;-57
2024/02/13 07:25:25;;;;;;;4.50;1.30;;;;;;;6.59;100.00;100835.21;104915;1259;71770;-56
2024/02/13 07:27:53;;;;;;;8.70;4.00;;;;;;;6.66;100.00;100847.40;104994;1256;60531;-57
2024/02/13 07:30:21;;;;;;;11.20;7.90;;;;;;;6.73;100.00;100860.86;104823;1259;60490;-58
2024/02/13 07:32:50;;;;;;;9.00;4.30;;;;;;;6.81;100.00;100875.02;108896;1253;72621;-59
2024/02/13 07:35:20;;;;;;;29.80;22.00;;;;;;;6.88;100.00;100887.21;108983;1253;65827;-59
2024/02/13 07:37:47;;;;;;;143.30;113.80;;;;;;;6.98;100.00;100906.15;108969;1256;73111;-59
2024/02/13 07:40:15;;;;;;;101.10;76.80;;;;;;;7.05;100.00;100914.42;108947;1254;60470;-59
2024/02/13 07:42:42;;;;;;;103.70;77.00;;;;;;;7.14;100.00;100929.29;109194;1254;58809;-59
2024/02/13 07:45:09;;;;;;;79.10;57.10;;;;;;;7.21;100.00;100939.71;108807;1257;72082;-59
2024/02/13 07:47:39;;;;;;;85.80;70.20;;;;;;;7.28;100.00;100946.39;109146;1253;65614;-59
2024/02/13 07:50:08;;;;;;;17.80;7.80;;;;;;;7.36;100.00;100963.22;108115;1256;72665;-56
2024/02/13 07:52:36;;;;;;;11.60;4.30;;;;;;;7.45;100.00;100973.08;109020;1253;60979;-59
2024/02/13 07:55:04;;;;;;;26.70;20.80;;;;;;;7.53;100.00;100989.55;108997;1253;58964;-60
2024/02/13 07:57:33;;;;;;;11.40;6.60;;;;;;;7.61;100.00;101004.95;108871;1256;72570;-59
2024/02/13 08:00:02;;;;;;;9.10;2.30;;;;;;;7.70;100.00;101026.08;104992;1254;67371;-57
2024/02/13 08:02:30;;;;;;;8.60;6.50;;;;;;;7.76;100.00;101035.27;109117;1256;72743;-58
2024/02/13 08:04:59;;;;;;;8.60;3.00;;;;;;;7.81;100.00;101045.38;105599;1257;60532;-57
2024/02/13 08:07:27;;;;;;;4.40;1.50;;;;;;;7.86;100.00;101054.75;105588;1259;60397;-57
2024/02/13 08:09:55;;;;;;;6.10;1.20;;;;;;;7.92;100.00;101067.89;105127;1259;72676;-58
2024/02/13 08:12:24;;;;;;;9.20;1.30;;;;;;;7.99;100.00;101086.36;105002;1259;66783;-56
2024/02/13 08:14:51;;;;;;;1.90;1.10;;;;;;;8.06;100.00;101101.80;105160;1259;72171;-57
2024/02/13 08:17:19;;;;;;;4.00;1.00;;;;;;;8.12;100.00;101114.02;104876;1253;62170;-57
2024/02/13 08:19:46;;;;;;;4.70;1.50;;;;;;;8.17;100.00;101123.61;104979;1254;60619;-57
2024/02/13 08:22:15;;;;;;;5.10;1.40;;;;;;;8.20;100.00;101131.95;104764;1253;72072;-57
2024/02/13 08:24:43;;;;;;;3.00;1.10;;;;;;;8.24;100.00;101143.52;105427;1254;66560;-57
2024/02/13 08:27:10;;;;;;;4.40;1.60;;;;;;;8.28;100.00;101153.27;104890;1259;73093;-56
2024/02/13 08:29:38;;;;;;;4.10;0.90;;;;;;;8.33;100.00;101156.62;104994;1259;61752;-59
2024/02/13 08:32:06;;;;;;;4.50;1.50;;;;;;;8.39;100.00;101164.23;104861;1256;60446;-58
2024/02/13 08:34:34;;;;;;;5.30;0.90;;;;;;;8.46;100.00;101181.99;105997;1254;75493;-57
2024/02/13 08:37:02;;;;;;;60.00;32.10;;;;;;;8.53;100.00;101197.79;104908;1256;68212;-58
2024/02/13 08:39:29;;;;;;;41.70;21.50;;;;;;;8.59;100.00;101210.57;105021;1257;71944;-58
2024/02/13 08:41:58;;;;;;;20.60;8.70;;;;;;;8.64;100.00;101218.71;104982;1259;61971;-58
2024/02/13 08:44:26;;;;;;;7.00;2.30;;;;;;;8.68;100.00;101230.81;104928;1259;60430;-57
2024/02/13 08:46:54;;;;;;;11.50;1.50;;;;;;;8.72;100.00;101242.55;105385;1253;73179;-58
2024/02/13 08:49:21;;;;;;;10.80;2.00;;;;;;;8.75;100.00;101253.25;104858;1259;69635;-58
2024/02/13 08:51:49;;;;;;;5.40;2.00;;;;;;;8.79;100.00;101260.51;104822;1253;72885;-57
2024/02/13 08:54:16;;;;;;;17.70;8.70;;;;;;;8.83;100.00;101271.19;105511;1255;60550;-58
2024/02/13 08:56:44;;;;;;;13.70;7.70;;;;;;;8.87;100.00;101282.02;104910;1254;60426;-58
2024/02/13 08:59:11;;;;;;;4.60;1.40;;;;;;;8.92;100.00;101295.20;106041;1256;73830;-58
2024/02/13 09:01:40;;;;;;;41.60;20.00;;;;;;;8.96;100.00;101310.52;104992;1259;66824;-58
2024/02/13 09:04:10;;;;;;;86.70;58.20;;;;;;;9.02;100.00;101324.03;105881;1259;71969;-58
2024/02/13 09:06:37;;;;;;;63.30;44.30;;;;;;;9.08;100.00;101337.00;105165;1259;64463;-58
2024/02/13 09:09:05;;;;;;;8.40;3.60;;;;;;;9.12;100.00;101345.69;104817;1257;60672;-58
2024/02/13 09:11:33;;;;;;;11.30;6.00;;;;;;;9.17;100.00;101351.36;104627;1259;73872;-57
2024/02/13 09:14:00;;;;;;;8.20;2.30;;;;;;;9.20;100.00;101362.21;104743;1258;67029;-58
2024/02/13 09:16:28;;;;;;;4.10;1.30;;;;;;;9.23;100.00;101370.60;104812;1258;74474;-57
2024/02/13 09:18:56;;;;;;;8.50;1.00;;;;;;;9.25;100.00;101380.06;104953;1256;61358;-57
2024/02/13 09:21:25;;;;;;;1.60;0.80;;;;;;;9.25;100.00;101386.85;106475;1254;60536;-58
2024/02/13 09:23:52;;;;;;;2.60;0.80;;;;;;;9.26;100.00;101395.25;105783;1255;73879;-58
2024/02/13 09:26:20;;;;;;;4.60;0.90;;;;;;;9.28;100.00;101398.44;105013;1259;67011;-57
2024/02/13 09:28:48;;;;;;;3.60;0.80;;;;;;;9.29;100.00;101404.52;104620;1259;72830;-58
2024/02/13 09:31:16;;;;;;;5.10;0.90;;;;;;;9.32;100.00;101408.42;104990;1258;60611;-58
2024/02/13 09:33:45;;;;;;;2.10;0.70;;;;;;;9.34;100.00;101420.75;104835;1254;60325;-58
2024/02/13 09:36:14;;;;;;;6.10;0.70;;;;;;;9.37;100.00;101426.60;108206;1253;73271;-58
2024/02/13 09:38:42;;;;;;;1.70;0.70;;;;;;;9.40;100.00;101432.45;106001;1253;65993;-58
2024/02/13 09:41:10;;;;;;;4.90;1.10;;;;;;;9.44;100.00;101439.92;106412;1253;71374;-59
2024/02/13 09:43:38;;;;;;;4.90;1.00;;;;;;;9.48;100.00;101446.66;105350;1254;60451;-58
2024/02/13 09:46:15;;;;;;;2.90;1.00;;;;;;;9.53;100.00;101466.28;104946;1257;61939;-58
2024/02/13 09:48:45;;;;;;;6.70;1.10;;;;;;;9.58;100.00;101477.86;104769;1254;73021;-59
2024/02/13 09:51:18;;;;;;;2.50;0.80;;;;;;;9.62;100.00;101492.83;104980;1259;66150;-58
2024/02/13 09:53:46;;;;;;;3.30;0.80;;;;;;;9.65;100.00;101497.44;105100;1259;72792;-58
2024/02/13 09:56:14;;;;;;;4.30;1.00;;;;;;;9.69;100.00;101504.74;105133;1254;60525;-59
2024/02/13 09:58:44;;;;;;;3.70;0.80;;;;;;;9.73;100.00;101516.49;104656;1254;62071;-57
2024/02/13 10:01:11;;;;;;;3.10;1.20;;;;;;;9.79;100.00;101528.41;105112;1259;72879;-57
2024/02/13 10:03:39;;;;;;;5.00;1.80;;;;;;;9.85;100.00;101539.96;106037;1259;66263;-59
2024/02/13 10:06:06;;;;;;;2.50;0.90;;;;;;;9.92;100.00;101561.02;105429;1257;71800;-58
2024/02/13 10:08:37;;;;;;;2.40;0.90;;;;;;;9.97;100.00;101577.59;104774;1259;61954;-58
2024/02/13 10:11:08;;;;;;;6.50;0.90;;;;;;;10.01;100.00;101597.80;104760;1254;60938;-57
2024/02/13 10:13:40;;;;;;;6.30;1.20;;;;;;;10.06;100.00;101607.39;109048;1254;72619;-59
2024/02/13 10:16:19;;;;;;;3.70;1.00;;;;;;;10.11;100.00;101622.58;108973;1254;67511;-58
2024/02/13 10:18:54;;;;;;;11.00;0.80;;;;;;;10.14;100.00;101633.98;108139;1256;71504;-58
2024/02/13 10:21:24;;;;;;;4.60;0.90;;;;;;;10.18;100.00;101652.07;107891;1257;61677;-57
2024/02/13 10:23:55;;;;;;;6.50;0.70;;;;;;;10.20;100.00;101663.36;108925;1254;61035;-58
2024/02/13 10:26:23;;;;;;;7.50;0.90;;;;;;;10.21;100.00;101675.18;109069;1253;73917;-58
2024/02/13 10:28:54;;;;;;;7.20;0.90;;;;;;;10.22;100.00;101685.38;108855;1254;65630;-58
2024/02/13 10:31:26;;;;;;;7.10;1.60;;;;;;;10.23;100.00;101703.29;109214;1254;71464;-57
2024/02/13 10:33:54;;;;;;;3.70;0.70;;;;;;;10.27;100.00;101715.80;108997;1253;61450;-57
2024/02/13 10:36:22;;;;;;;3.50;0.70;;;;;;;10.32;100.00;101724.86;105683;1254;60479;-57
2024/02/13 10:38:53;;;;;;;5.60;1.10;;;;;;;10.37;100.00;101744.01;104882;1254;74393;-57
2024/02/13 10:41:23;;;;;;;4.40;0.90;;;;;;;10.43;100.00;101608.23;109082;1253;65806;-58
2024/02/13 10:43:53;;;;;;;4.10;0.80;;;;;;;10.45;100.00;101594.71;108848;1253;71761;-59
2024/02/13 10:46:23;;;;;;;2.30;0.70;;;;;;;10.47;100.00;101589.63;105645;1256;60553;-58
2024/02/13 10:48:53;;;;;;;9.50;1.10;;;;;;;10.49;100.00;101588.17;105525;1259;60478;-59
2024/02/13 10:51:21;;;;;;;4.60;0.70;;;;;;;10.50;100.00;101589.77;109073;1252;75946;-59
2024/02/13 10:53:48;;;;;;;4.10;0.60;;;;;;;10.50;100.00;101592.11;108142;1259;67795;-58
2024/02/13 10:56:16;;;;;;;7.00;1.20;;;;;;;10.52;100.00;101593.15;104828;1257;71617;-59
2024/02/13 10:58:43;;;;;;;5.50;0.60;;;;;;;10.55;100.00;101596.48;104745;1254;61760;-58
2024/02/13 11:01:11;;;;;;;4.90;0.60;;;;;;;10.59;100.00;101600.55;104714;1259;60505;-58
2024/02/13 11:03:39;;;;;;;3.00;0.60;;;;;;;10.62;100.00;101610.55;104726;1261;72637;-59
2024/02/13 11:06:06;;;;;;;3.60;0.80;;;;;;;10.65;100.00;101617.11;104805;1260;68180;-59
2024/02/13 11:08:34;;;;;;;3.70;0.60;;;;;;;10.68;100.00;101621.92;104553;1257;72002;-59
2024/02/13 11:11:06;;;;;;;5.90;0.60;;;;;;;10.70;100.00;101631.95;104486;1256;61659;-59
2024/02/13 11:13:35;;;;;;;3.30;0.90;;;;;;;10.71;100.00;101638.23;109004;1254;58836;-58
2024/02/13 11:16:03;;;;;;;3.50;0.60;;;;;;;10.72;100.00;101646.63;105264;1259;73178;-58
2024/02/13 11:18:34;;;;;;;2.70;0.60;;;;;;;10.75;100.00;101658.06;104622;1259;67048;-58
2024/02/13 11:21:06;;;;;;;5.60;0.70;;;;;;;10.78;100.00;101671.65;104709;1254;71510;-58
2024/02/13 11:23:34;;;;;;;2.40;0.80;;;;;;;10.83;100.00;101679.45;106271;1256;61739;-57
2024/02/13 11:26:02;;;;;;;4.20;0.70;;;;;;;10.87;100.00;101690.89;105081;1259;60781;-57